Time;durP1;ratioP1;P1;durP2;ratioP2;P2;SDS_P1;SDS_P2;PMS_P1;PMS_P2;Temp;Humidity;BMP_temperature;BMP_pressure;BME280_temperature;BME280_humidity;BME280_pressure;Samples;Min_cycle;Max_cycle;Signal;HPM_P1;HPM_P2
2020/12/23 00:00:15;;;;;;;3.45;2.17;;;11.90;99.90;;;;;;6735571;88;21031;-77
2020/12/23 00:10:16;;;;;;;3.75;2.05;;;11.80;99.90;;;;;;6726253;88;20296;-76
2020/12/23 00:20:16;;;;;;;5.28;2.83;;;11.80;99.90;;;;;;6737811;88;20287;-76
2020/12/23 00:30:19;;;;;;;6.05;3.80;;;11.80;99.90;;;;;;6727009;88;20226;-77
2020/12/23 00:40:20;;;;;;;6.35;3.85;;;11.70;99.90;;;;;;6731947;88;20227;-77
2020/12/23 00:50:21;;;;;;;8.20;4.37;;;11.70;99.90;;;;;;6727411;88;20225;-77
2020/12/23 01:00:21;;;;;;;7.20;4.35;;;11.70;99.90;;;;;;6725523;88;20265;-77
2020/12/23 01:10:21;;;;;;;7.68;3.70;;;11.60;99.90;;;;;;6725710;88;20213;-76
2020/12/23 01:20:22;;;;;;;3.65;2.40;;;11.60;99.90;;;;;;6729040;88;20240;-77
2020/12/23 01:30:23;;;;;;;5.68;1.30;;;11.60;99.90;;;;;;6731216;88;20220;-77
2020/12/23 01:40:23;;;;;;;5.32;0.90;;;11.70;99.90;;;;;;6732786;88;22175;-76
2020/12/23 01:50:24;;;;;;;1.35;0.60;;;11.70;99.90;;;;;;6735519;88;20260;-77
2020/12/23 02:00:25;;;;;;;3.42;1.20;;;11.90;99.90;;;;;;6732418;88;20200;-77
2020/12/23 02:10:25;;;;;;;0.95;0.43;;;11.90;99.90;;;;;;6739465;88;20241;-77
2020/12/23 02:20:26;;;;;;;3.90;1.80;;;11.80;99.90;;;;;;6738933;88;20229;-77
2020/12/23 02:30:26;;;;;;;5.55;2.87;;;11.70;99.90;;;;;;6745569;88;20182;-77
2020/12/23 02:40:27;;;;;;;5.62;3.17;;;11.70;99.90;;;;;;6741209;88;20638;-76
2020/12/23 02:50:27;;;;;;;5.30;2.90;;;11.60;99.90;;;;;;6731830;88;20311;-77
2020/12/23 03:00:28;;;;;;;5.18;3.20;;;11.60;99.90;;;;;;6734678;88;20323;-77
2020/12/23 03:10:28;;;;;;;6.77;3.47;;;11.60;99.90;;;;;;6735875;88;20612;-77
2020/12/23 03:20:29;;;;;;;7.12;3.78;;;11.60;99.90;;;;;;6732039;88;20203;-77
2020/12/23 03:30:29;;;;;;;5.68;3.00;;;11.60;99.90;;;;;;6732036;88;20189;-77
2020/12/23 03:40:30;;;;;;;4.47;2.05;;;11.50;99.90;;;;;;6736469;88;20193;-76
2020/12/23 03:50:31;;;;;;;4.12;2.00;;;11.60;99.90;;;;;;6735943;88;20196;-76
2020/12/23 04:00:31;;;;;;;3.45;2.00;;;11.60;99.90;;;;;;6735538;88;20184;-74
2020/12/23 04:10:35;;;;;;;3.00;1.40;;;11.60;99.90;;;;;;6735898;88;20267;-75
2020/12/23 04:20:36;;;;;;;2.37;0.93;;;11.70;99.90;;;;;;6718468;88;20650;-74
2020/12/23 04:30:36;;;;;;;1.98;1.10;;;11.70;99.90;;;;;;6719712;88;20210;-75
2020/12/23 04:40:39;;;;;;;2.55;1.00;;;11.80;99.90;;;;;;6721725;88;20189;-76
2020/12/23 04:50:43;;;;;;;2.50;1.12;;;11.70;99.90;;;;;;6721101;88;20665;-75
2020/12/23 05:00:43;;;;;;;2.58;1.35;;;11.70;99.90;;;;;;6721770;88;20345;-76
2020/12/23 05:10:44;;;;;;;2.83;1.30;;;11.70;99.90;;;;;;6721751;88;20254;-75
2020/12/23 05:20:46;;;;;;;2.28;1.20;;;11.70;99.90;;;;;;6719540;88;20189;-76
2020/12/23 05:30:53;;;;;;;4.47;1.60;;;11.70;99.90;;;;;;6721112;88;20255;-75
2020/12/23 05:40:54;;;;;;;3.78;1.92;;;11.80;99.90;;;;;;6720944;88;20180;-75
2020/12/23 05:50:55;;;;;;;4.07;2.20;;;11.80;99.90;;;;;;6721776;88;20344;-76
2020/12/23 06:00:58;;;;;;;5.32;2.85;;;11.70;99.90;;;;;;6720943;88;20197;-75
2020/12/23 06:11:29;;;;;;;4.25;2.62;;;11.60;99.90;;;;;;6719828;88;20205;-76
2020/12/23 06:21:30;;;;;;;5.68;2.87;;;11.60;99.90;;;;;;6718523;88;20277;-75
2020/12/23 06:31:52;;;;;;;5.60;3.10;;;11.70;99.90;;;;;;6718995;88;20185;-75
2020/12/23 06:41:55;;;;;;;6.55;3.20;;;11.70;99.90;;;;;;6719158;88;20224;-77
2020/12/23 06:51:55;;;;;;;7.62;3.55;;;11.60;99.90;;;;;;6718078;88;20239;-76
2020/12/23 07:02:00;;;;;;;6.43;2.87;;;11.70;99.90;;;;;;6715523;88;20361;-75
2020/12/23 07:12:02;;;;;;;7.03;2.60;;;11.80;99.90;;;;;;6714552;88;20177;-75
2020/12/23 07:22:03;;;;;;;4.53;2.20;;;11.80;99.90;;;;;;6718581;88;20211;-76
2020/12/23 07:32:04;;;;;;;4.30;2.55;;;11.90;99.90;;;;;;6725334;88;20287;-76
2020/12/23 07:42:05;;;;;;;4.50;2.55;;;11.90;99.90;;;;;;6721559;88;20217;-76
2020/12/23 07:52:06;;;;;;;4.00;2.05;;;11.70;99.90;;;;;;6724546;88;20335;-76
2020/12/23 08:02:09;;;;;;;5.97;2.33;;;11.70;99.90;;;;;;6721286;88;20226;-74
2020/12/23 08:12:10;;;;;;;3.62;1.90;;;11.70;99.90;;;;;;6730353;88;20192;-77
2020/12/23 08:22:11;;;;;;;3.80;1.75;;;11.70;99.90;;;;;;6737736;88;20649;-79
2020/12/23 08:32:13;;;;;;;3.58;1.83;;;11.80;99.90;;;;;;6743590;88;20200;-80
2020/12/23 08:42:13;;;;;;;4.62;1.90;;;11.90;99.90;;;;;;6753829;88;20777;-81
2020/12/23 08:52:18;;;;;;;3.55;2.10;;;11.80;99.90;;;;;;6743198;88;20181;-79
2020/12/23 09:02:19;;;;;;;5.95;2.45;;;11.90;99.90;;;;;;6725391;88;20205;-75
2020/12/23 09:12:21;;;;;;;5.25;2.67;;;11.80;99.90;;;;;;6734061;88;20210;-76
2020/12/23 09:22:24;;;;;;;3.37;1.87;;;11.90;99.90;;;;;;6721607;88;20194;-74
2020/12/23 09:32:24;;;;;;;5.53;1.92;;;12.00;99.90;;;;;;6721543;88;20205;-74
2020/12/23 09:42:25;;;;;;;2.60;1.62;;;12.10;99.90;;;;;;6718007;88;20208;-78
2020/12/23 09:52:25;;;;;;;3.28;1.50;;;12.20;99.90;;;;;;6719728;88;20719;-75
2020/12/23 10:02:26;;;;;;;4.87;1.50;;;12.30;99.90;;;;;;6719775;88;20622;-74
2020/12/23 10:12:26;;;;;;;3.58;1.05;;;12.30;99.90;;;;;;6720031;88;20732;-75
2020/12/23 10:22:27;;;;;;;2.37;1.20;;;12.30;99.90;;;;;;6715356;88;20219;-75
2020/12/23 10:32:31;;;;;;;1.62;0.70;;;12.30;99.90;;;;;;6717858;88;20732;-75
2020/12/23 10:42:32;;;;;;;3.05;0.95;;;12.50;99.90;;;;;;6716916;88;20251;-75
2020/12/23 10:52:32;;;;;;;4.20;1.73;;;12.20;99.90;;;;;;6717420;88;20206;-75
2020/12/23 11:02:33;;;;;;;4.78;1.83;;;12.10;99.90;;;;;;6717199;88;20645;-77
2020/12/23 11:12:33;;;;;;;3.37;1.87;;;12.10;99.90;;;;;;6716818;88;20189;-76
2020/12/23 11:22:34;;;;;;;4.70;2.70;;;12.20;99.90;;;;;;6718549;88;20701;-75
2020/12/23 11:32:34;;;;;;;4.32;2.80;;;12.20;99.90;;;;;;6728854;88;20176;-73
2020/12/23 11:42:41;;;;;;;5.50;3.55;;;12.10;99.90;;;;;;6722391;88;20170;-73
2020/12/23 11:52:42;;;;;;;6.05;3.60;;;12.10;99.90;;;;;;6734387;88;20190;-74
2020/12/23 12:02:42;;;;;;;5.45;2.90;;;12.20;99.90;;;;;;6732501;88;20268;-74
2020/12/23 12:12:43;;;;;;;3.37;1.92;;;12.30;99.90;;;;;;6734568;88;20197;-74
2020/12/23 12:22:43;;;;;;;4.37;1.65;;;12.20;99.90;;;;;;6727423;88;20666;-73
2020/12/23 12:32:46;;;;;;;4.15;1.70;;;12.30;99.90;;;;;;6727826;88;20709;-75
2020/12/23 12:42:47;;;;;;;3.53;2.00;;;12.40;99.90;;;;;;6733935;88;20185;-75
2020/12/23 12:52:47;;;;;;;2.92;1.70;;;12.20;99.90;;;;;;6734507;88;20795;-74
2020/12/23 13:02:47;;;;;;;3.78;2.10;;;12.40;99.90;;;;;;6744678;88;20624;-74
2020/12/23 13:12:48;;;;;;;4.10;2.30;;;12.40;99.90;;;;;;6741909;88;20582;-74
2020/12/23 13:22:49;;;;;;;5.45;2.70;;;12.20;99.90;;;;;;6734237;88;20364;-75
2020/12/23 13:32:49;;;;;;;6.30;2.67;;;12.20;99.90;;;;;;6730974;88;20217;-76
2020/12/23 13:42:50;;;;;;;4.28;2.03;;;12.30;99.90;;;;;;6732264;88;20296;-74
2020/12/23 13:52:50;;;;;;;3.97;1.10;;;12.40;99.90;;;;;;6735174;88;20727;-76
2020/12/23 14:02:51;;;;;;;4.35;1.52;;;12.40;99.90;;;;;;6734719;88;20567;-74
2020/12/23 14:12:52;;;;;;;1.92;0.90;;;12.40;99.90;;;;;;6734784;88;20192;-75
2020/12/23 14:22:52;;;;;;;3.75;1.67;;;12.30;99.90;;;;;;6735322;88;20197;-75
2020/12/23 14:32:53;;;;;;;3.78;1.80;;;12.20;99.90;;;;;;6736021;88;20360;-76
2020/12/23 14:42:53;;;;;;;2.87;1.02;;;12.10;99.90;;;;;;6737412;88;20262;-76
2020/12/23 14:52:54;;;;;;;2.45;1.00;;;12.10;99.90;;;;;;6738140;88;20640;-76
2020/12/23 15:02:54;;;;;;;1.75;0.90;;;12.10;99.90;;;;;;6739989;88;20188;-73
2020/12/23 15:12:55;;;;;;;2.92;0.70;;;12.00;99.90;;;;;;6753341;88;21059;-74
2020/12/23 15:22:55;;;;;;;1.77;0.88;;;12.00;99.90;;;;;;6745054;88;20701;-75
2020/12/23 15:32:56;;;;;;;2.15;1.00;;;11.90;99.90;;;;;;6734088;88;20933;-75
2020/12/23 15:42:56;;;;;;;2.03;0.60;;;11.90;99.90;;;;;;6736164;88;20744;-77
2020/12/23 15:52:57;;;;;;;0.95;0.50;;;11.70;99.90;;;;;;6732721;88;20200;-75
2020/12/23 16:02:58;;;;;;;1.95;1.05;;;11.70;99.90;;;;;;6736280;87;20205;-74
2020/12/23 16:12:58;;;;;;;2.08;1.25;;;11.70;99.90;;;;;;6734019;88;20215;-74
2020/12/23 16:22:59;;;;;;;1.87;0.80;;;11.70;99.90;;;;;;6734733;88;20187;-75
2020/12/23 16:33:00;;;;;;;1.33;0.80;;;11.70;99.90;;;;;;6737876;88;21053;-78
2020/12/23 16:43:01;;;;;;;1.65;1.00;;;11.80;99.90;;;;;;6732014;88;20177;-76
2020/12/23 16:53:02;;;;;;;1.48;0.80;;;11.70;99.90;;;;;;6731784;88;20214;-75
2020/12/23 17:03:03;;;;;;;1.60;0.70;;;11.70;99.90;;;;;;6730541;88;20208;-76
2020/12/23 17:13:03;;;;;;;1.45;0.50;;;11.70;99.90;;;;;;6730023;88;21491;-75
2020/12/23 17:23:04;;;;;;;4.53;1.05;;;11.50;99.90;;;;;;6735717;88;20335;-77
2020/12/23 17:33:04;;;;;;;2.72;0.88;;;11.40;99.90;;;;;;6734492;88;20193;-77
2020/12/23 17:43:05;;;;;;;1.83;0.88;;;11.30;99.90;;;;;;6743930;88;20259;-76
2020/12/23 17:53:06;;;;;;;1.55;0.73;;;11.60;99.90;;;;;;6732369;88;20172;-78
2020/12/23 18:03:06;;;;;;;1.50;0.85;;;11.70;99.90;;;;;;6744229;88;20253;-76
2020/12/23 18:13:07;;;;;;;2.08;0.93;;;11.70;99.90;;;;;;6741293;88;20240;-77
2020/12/23 18:23:07;;;;;;;1.58;0.80;;;11.70;99.90;;;;;;6743496;88;20198;-74
2020/12/23 18:33:08;;;;;;;2.00;0.93;;;11.80;99.90;;;;;;6737744;88;20321;-75
2020/12/23 18:43:08;;;;;;;2.55;0.90;;;11.70;99.90;;;;;;6729453;88;20729;-76
2020/12/23 18:53:09;;;;;;;3.12;1.20;;;11.70;99.90;;;;;;6735716;88;20197;-77
2020/12/23 19:03:10;;;;;;;1.92;1.17;;;11.80;99.90;;;;;;6737005;88;20200;-74
2020/12/23 19:13:10;;;;;;;2.45;1.10;;;11.70;99.90;;;;;;6734731;88;20223;-77
2020/12/23 19:23:11;;;;;;;3.10;1.42;;;11.70;99.90;;;;;;6742137;88;20192;-77
2020/12/23 19:33:13;;;;;;;3.65;1.65;;;11.80;99.90;;;;;;6732628;88;20601;-77
2020/12/23 19:43:15;;;;;;;10.05;3.25;;;11.70;99.90;;;;;;6737779;88;20172;-77
2020/12/23 19:53:15;;;;;;;3.62;1.42;;;11.60;99.90;;;;;;6736778;88;20189;-77
2020/12/23 20:03:17;;;;;;;3.15;1.50;;;11.70;99.90;;;;;;6734673;88;20324;-77
2020/12/23 20:13:17;;;;;;;3.15;1.80;;;11.60;99.90;;;;;;6733778;88;20187;-78
2020/12/23 20:23:18;;;;;;;2.10;1.30;;;11.50;99.90;;;;;;6748800;88;20676;-77
2020/12/23 20:33:19;;;;;;;5.00;1.37;;;11.40;99.90;;;;;;6758118;88;20364;-77
2020/12/23 20:43:20;;;;;;;3.53;1.40;;;11.50;99.90;;;;;;6758807;88;20216;-77
2020/12/23 20:53:21;;;;;;;6.00;1.65;;;11.60;99.90;;;;;;6754533;88;20572;-75
2020/12/23 21:03:21;;;;;;;4.10;1.17;;;11.60;99.90;;;;;;6734361;88;20199;-79
2020/12/23 21:13:22;;;;;;;4.78;1.17;;;11.40;99.90;;;;;;6729313;88;20174;-77
2020/12/23 21:23:23;;;;;;;3.20;1.73;;;11.40;99.90;;;;;;6737364;88;20193;-76
2020/12/23 21:33:23;;;;;;;5.47;1.35;;;11.20;99.90;;;;;;6738023;88;20765;-78
2020/12/23 21:43:24;;;;;;;3.85;1.15;;;11.00;99.90;;;;;;6737535;88;20202;-77
2020/12/23 21:53:26;;;;;;;4.00;0.70;;;11.30;99.90;;;;;;6739602;88;20196;-77
2020/12/23 22:03:27;;;;;;;3.00;0.77;;;11.40;99.90;;;;;;6737867;88;20389;-76
2020/12/23 22:23:39;;;;;;;3.72;0.77;;;11.10;99.90;;;;;;7419546;77;21171;-75
2020/12/23 22:33:40;;;;;;;3.85;0.55;;;11.10;99.90;;;;;;6735292;86;20195;-76
2020/12/23 22:43:42;;;;;;;3.05;0.88;;;11.20;99.90;;;;;;6745404;88;20184;-76
2020/12/23 22:53:42;;;;;;;6.03;0.82;;;11.00;99.90;;;;;;6747702;88;20215;-75
2020/12/23 23:03:44;;;;;;;3.40;0.75;;;10.90;99.90;;;;;;6744140;88;20761;-75
2020/12/23 23:13:45;;;;;;;5.70;0.90;;;10.60;99.90;;;;;;6752842;88;20254;-76
2020/12/23 23:23:46;;;;;;;6.28;1.23;;;10.50;99.90;;;;;;6737047;88;20231;-76
2020/12/23 23:33:47;;;;;;;4.87;1.20;;;10.00;99.90;;;;;;6731360;88;20263;-76
2020/12/23 23:43:47;;;;;;;4.68;1.08;;;9.90;99.90;;;;;;6751784;88;20217;-76
2020/12/23 23:53:48;;;;;;;5.60;0.90;;;9.70;99.90;;;;;;6753036;88;20199;-76
